Glen Rose, Texas
Current Conditions -  °F | °C
As of 10:35 AM on Thursday 29 Jan 2015 (Local Time) from KGDJ Reporting Station
Clear Clear  
Wind Chill: 66°   Ceiling: Unl
Heat Index: 66°   Visibility: 10mi
Dew Point: 36°   Wind: 13mph
Humidity: 33%   Direction: 10°N
Pressure: 30.31"   Gusts: 23mph
Location:  32.23°N, 97.76°W
Report Text: KGDJ 291635Z AUTO 01011G20KT 10SM CLR 19/02 A3031 RMK AO2 T01910024
Loading
Personal Weather Stations






























Interactive Weather Map New forecast layout! Learn more

10-Day Weather Forecast

Advertisements
Track Severe Weather on mobile